sensor_id;sensor_type;location;lat;lon;timestamp;temperature;humidity
71837;DHT22;59686;51.716;7.016;2022-08-01T00:00:43;23.00;75.20
71837;DHT22;59686;51.716;7.016;2022-08-01T00:03:08;23.00;75.20
71837;DHT22;59686;51.716;7.016;2022-08-01T00:05:34;23.00;75.20
71837;DHT22;59686;51.716;7.016;2022-08-01T00:08:00;23.00;75.30
71837;DHT22;59686;51.716;7.016;2022-08-01T00:10:25;22.90;75.20
71837;DHT22;59686;51.716;7.016;2022-08-01T00:12:51;23.00;75.20
71837;DHT22;59686;51.716;7.016;2022-08-01T00:15:17;22.90;75.10
71837;DHT22;59686;51.716;7.016;2022-08-01T00:17:43;22.90;75.10
71837;DHT22;59686;51.716;7.016;2022-08-01T00:20:11;22.90;75.00
71837;DHT22;59686;51.716;7.016;2022-08-01T00:22:37;22.90;75.10
71837;DHT22;59686;51.716;7.016;2022-08-01T00:25:04;22.90;75.20
71837;DHT22;59686;51.716;7.016;2022-08-01T00:27:30;22.90;75.50
71837;DHT22;59686;51.716;7.016;2022-08-01T00:29:55;22.90;75.80
71837;DHT22;59686;51.716;7.016;2022-08-01T00:32:21;22.90;75.80
71837;DHT22;59686;51.716;7.016;2022-08-01T00:34:48;22.90;75.80
71837;DHT22;59686;51.716;7.016;2022-08-01T00:37:13;22.90;75.90
71837;DHT22;59686;51.716;7.016;2022-08-01T00:39:39;22.90;75.90
71837;DHT22;59686;51.716;7.016;2022-08-01T00:42:11;22.90;76.10
71837;DHT22;59686;51.716;7.016;2022-08-01T00:44:37;22.80;76.00
71837;DHT22;59686;51.716;7.016;2022-08-01T00:47:03;22.80;76.00
71837;DHT22;59686;51.716;7.016;2022-08-01T00:49:29;22.80;76.00
71837;DHT22;59686;51.716;7.016;2022-08-01T00:51:56;22.80;76.00
71837;DHT22;59686;51.716;7.016;2022-08-01T00:54:26;22.80;76.00
71837;DHT22;59686;51.716;7.016;2022-08-01T00:56:54;22.80;76.00
71837;DHT22;59686;51.716;7.016;2022-08-01T00:59:21;22.80;75.90
71837;DHT22;59686;51.716;7.016;2022-08-01T01:01:48;22.80;75.80
71837;DHT22;59686;51.716;7.016;2022-08-01T01:04:25;22.80;75.80
71837;DHT22;59686;51.716;7.016;2022-08-01T01:07:13;22.80;75.70
71837;DHT22;59686;51.716;7.016;2022-08-01T01:10:06;22.80;75.80
71837;DHT22;59686;51.716;7.016;2022-08-01T01:17:58;22.80;75.90
71837;DHT22;59686;51.716;7.016;2022-08-01T01:20:35;22.70;75.70
71837;DHT22;59686;51.716;7.016;2022-08-01T01:28:59;22.70;75.90
71837;DHT22;59686;51.716;7.016;2022-08-01T01:31:27;22.70;76.00
71837;DHT22;59686;51.716;7.016;2022-08-01T01:33:55;22.70;76.00
71837;DHT22;59686;51.716;7.016;2022-08-01T01:36:24;22.70;76.10
71837;DHT22;59686;51.716;7.016;2022-08-01T01:38:52;22.70;76.20
71837;DHT22;59686;51.716;7.016;2022-08-01T01:41:30;22.70;76.20
71837;DHT22;59686;51.716;7.016;2022-08-01T01:43:57;22.70;76.30
71837;DHT22;59686;51.716;7.016;2022-08-01T01:46:24;22.70;76.30
71837;DHT22;59686;51.716;7.016;2022-08-01T01:48:54;22.70;76.30
71837;DHT22;59686;51.716;7.016;2022-08-01T01:51:22;22.70;76.20
71837;DHT22;59686;51.716;7.016;2022-08-01T01:53:55;22.60;76.10
71837;DHT22;59686;51.716;7.016;2022-08-01T01:56:22;22.60;76.10
71837;DHT22;59686;51.716;7.016;2022-08-01T01:58:51;22.60;76.10
71837;DHT22;59686;51.716;7.016;2022-08-01T02:01:18;22.60;76.10
71837;DHT22;59686;51.716;7.016;2022-08-01T02:03:45;22.60;76.00
71837;DHT22;59686;51.716;7.016;2022-08-01T02:06:15;22.60;76.10
71837;DHT22;59686;51.716;7.016;2022-08-01T02:08:42;22.60;76.10
71837;DHT22;59686;51.716;7.016;2022-08-01T02:11:08;22.60;76.00
71837;DHT22;59686;51.716;7.016;2022-08-01T02:14:01;22.60;76.70
71837;DHT22;59686;51.716;7.016;2022-08-01T02:16:31;22.60;76.00
71837;DHT22;59686;51.716;7.016;2022-08-01T02:18:59;22.60;75.90
71837;DHT22;59686;51.716;7.016;2022-08-01T02:21:29;22.60;75.90
71837;DHT22;59686;51.716;7.016;2022-08-01T02:24:03;22.50;75.80
71837;DHT22;59686;51.716;7.016;2022-08-01T02:26:35;22.60;75.90
71837;DHT22;59686;51.716;7.016;2022-08-01T02:29:06;22.50;75.80
71837;DHT22;59686;51.716;7.016;2022-08-01T02:31:35;22.50;75.80
71837;DHT22;59686;51.716;7.016;2022-08-01T02:34:07;22.50;75.80
71837;DHT22;59686;51.716;7.016;2022-08-01T02:36:35;22.50;75.80
71837;DHT22;59686;51.716;7.016;2022-08-01T02:39:05;22.50;75.80
71837;DHT22;59686;51.716;7.016;2022-08-01T02:41:34;22.50;75.70
71837;DHT22;59686;51.716;7.016;2022-08-01T02:44:03;22.50;75.70
71837;DHT22;59686;51.716;7.016;2022-08-01T02:46:38;22.50;75.60
71837;DHT22;59686;51.716;7.016;2022-08-01T02:49:07;22.50;75.70
71837;DHT22;59686;51.716;7.016;2022-08-01T02:51:35;22.50;75.60
71837;DHT22;59686;51.716;7.016;2022-08-01T02:54:02;22.50;75.60
71837;DHT22;59686;51.716;7.016;2022-08-01T02:56:29;22.50;75.60
71837;DHT22;59686;51.716;7.016;2022-08-01T02:59:05;22.50;75.70
71837;DHT22;59686;51.716;7.016;2022-08-01T03:01:45;22.50;75.70
71837;DHT22;59686;51.716;7.016;2022-08-01T03:04:12;22.50;75.70
71837;DHT22;59686;51.716;7.016;2022-08-01T03:06:40;22.50;75.70
71837;DHT22;59686;51.716;7.016;2022-08-01T03:09:07;22.50;75.70
71837;DHT22;59686;51.716;7.016;2022-08-01T03:11:35;22.40;75.70
71837;DHT22;59686;51.716;7.016;2022-08-01T03:14:05;22.40;75.70
71837;DHT22;59686;51.716;7.016;2022-08-01T03:16:33;22.40;75.80
71837;DHT22;59686;51.716;7.016;2022-08-01T03:19:01;22.40;75.80
71837;DHT22;59686;51.716;7.016;2022-08-01T03:21:28;22.40;75.80
71837;DHT22;59686;51.716;7.016;2022-08-01T03:23:57;22.40;75.70
71837;DHT22;59686;51.716;7.016;2022-08-01T03:26:31;22.40;75.70
71837;DHT22;59686;51.716;7.016;2022-08-01T03:29:02;22.40;75.80
71837;DHT22;59686;51.716;7.016;2022-08-01T03:31:34;22.30;75.80
71837;DHT22;59686;51.716;7.016;2022-08-01T03:34:00;22.40;75.70
71837;DHT22;59686;51.716;7.016;2022-08-01T03:36:28;22.40;75.70
71837;DHT22;59686;51.716;7.016;2022-08-01T03:38:57;22.30;75.70
71837;DHT22;59686;51.716;7.016;2022-08-01T03:41:27;22.30;75.70
71837;DHT22;59686;51.716;7.016;2022-08-01T03:44:02;22.30;75.80
71837;DHT22;59686;51.716;7.016;2022-08-01T03:46:35;22.30;75.70
71837;DHT22;59686;51.716;7.016;2022-08-01T03:49:07;22.30;75.80
71837;DHT22;59686;51.716;7.016;2022-08-01T03:51:37;22.30;75.80
71837;DHT22;59686;51.716;7.016;2022-08-01T03:54:04;22.30;75.80
71837;DHT22;59686;51.716;7.016;2022-08-01T03:56:31;22.30;75.80
71837;DHT22;59686;51.716;7.016;2022-08-01T03:58:59;22.30;75.80
71837;DHT22;59686;51.716;7.016;2022-08-01T04:01:27;22.30;75.80
71837;DHT22;59686;51.716;7.016;2022-08-01T04:03:53;22.30;75.90
71837;DHT22;59686;51.716;7.016;2022-08-01T04:06:19;22.30;75.90
71837;DHT22;59686;51.716;7.016;2022-08-01T04:08:46;22.20;75.90
71837;DHT22;59686;51.716;7.016;2022-08-01T04:11:23;22.30;76.00
71837;DHT22;59686;51.716;7.016;2022-08-01T04:14:02;22.20;75.90
71837;DHT22;59686;51.716;7.016;2022-08-01T04:16:29;22.20;75.90
71837;DHT22;59686;51.716;7.016;2022-08-01T04:18:54;22.20;76.00
71837;DHT22;59686;51.716;7.016;2022-08-01T04:21:25;22.20;76.00
71837;DHT22;59686;51.716;7.016;2022-08-01T04:23:58;22.20;76.00
71837;DHT22;59686;51.716;7.016;2022-08-01T04:26:25;22.20;76.00
71837;DHT22;59686;51.716;7.016;2022-08-01T04:28:52;22.20;76.00
71837;DHT22;59686;51.716;7.016;2022-08-01T04:31:20;22.20;76.10
71837;DHT22;59686;51.716;7.016;2022-08-01T04:33:49;22.20;76.10
71837;DHT22;59686;51.716;7.016;2022-08-01T04:36:19;22.20;76.10
71837;DHT22;59686;51.716;7.016;2022-08-01T04:38:48;22.20;76.10
71837;DHT22;59686;51.716;7.016;2022-08-01T04:41:14;22.20;76.10
71837;DHT22;59686;51.716;7.016;2022-08-01T04:43:50;22.20;76.20
71837;DHT22;59686;51.716;7.016;2022-08-01T04:46:17;22.20;76.20
71837;DHT22;59686;51.716;7.016;2022-08-01T04:48:44;22.20;76.90
71837;DHT22;59686;51.716;7.016;2022-08-01T04:51:14;22.20;76.10
71837;DHT22;59686;51.716;7.016;2022-08-01T04:53:41;22.20;76.10
71837;DHT22;59686;51.716;7.016;2022-08-01T04:56:07;22.10;76.10
71837;DHT22;59686;51.716;7.016;2022-08-01T04:58:33;22.10;76.10
71837;DHT22;59686;51.716;7.016;2022-08-01T05:00:59;22.10;76.10
71837;DHT22;59686;51.716;7.016;2022-08-01T05:03:25;22.10;76.20
71837;DHT22;59686;51.716;7.016;2022-08-01T05:05:50;22.10;76.20
71837;DHT22;59686;51.716;7.016;2022-08-01T05:08:16;22.10;76.10
71837;DHT22;59686;51.716;7.016;2022-08-01T05:10:42;22.10;76.20
71837;DHT22;59686;51.716;7.016;2022-08-01T05:13:08;22.10;76.30
71837;DHT22;59686;51.716;7.016;2022-08-01T05:15:37;22.10;76.30
71837;DHT22;59686;51.716;7.016;2022-08-01T05:18:03;22.10;76.30
71837;DHT22;59686;51.716;7.016;2022-08-01T05:20:29;22.10;76.20
71837;DHT22;59686;51.716;7.016;2022-08-01T05:23:04;22.10;76.30
71837;DHT22;59686;51.716;7.016;2022-08-01T05:25:29;22.10;76.30
71837;DHT22;59686;51.716;7.016;2022-08-01T05:27:55;22.10;76.30
71837;DHT22;59686;51.716;7.016;2022-08-01T05:30:21;22.10;76.40
71837;DHT22;59686;51.716;7.016;2022-08-01T05:32:47;22.10;76.30
71837;DHT22;59686;51.716;7.016;2022-08-01T05:35:12;22.10;76.30
71837;DHT22;59686;51.716;7.016;2022-08-01T05:37:38;22.10;76.30
71837;DHT22;59686;51.716;7.016;2022-08-01T05:40:05;22.10;76.40
71837;DHT22;59686;51.716;7.016;2022-08-01T05:42:31;22.10;76.30
71837;DHT22;59686;51.716;7.016;2022-08-01T05:44:56;22.10;76.30
71837;DHT22;59686;51.716;7.016;2022-08-01T05:47:22;22.10;76.30
71837;DHT22;59686;51.716;7.016;2022-08-01T05:49:48;22.10;76.40
71837;DHT22;59686;51.716;7.016;2022-08-01T05:52:13;22.00;76.30
71837;DHT22;59686;51.716;7.016;2022-08-01T05:54:39;22.00;76.30
71837;DHT22;59686;51.716;7.016;2022-08-01T05:57:06;22.00;76.40
71837;DHT22;59686;51.716;7.016;2022-08-01T05:59:32;22.00;76.40
71837;DHT22;59686;51.716;7.016;2022-08-01T06:01:57;22.00;76.40
71837;DHT22;59686;51.716;7.016;2022-08-01T06:04:23;22.00;76.40
71837;DHT22;59686;51.716;7.016;2022-08-01T06:06:49;22.00;76.50
71837;DHT22;59686;51.716;7.016;2022-08-01T06:09:15;22.00;76.50
71837;DHT22;59686;51.716;7.016;2022-08-01T06:11:40;22.00;76.50
71837;DHT22;59686;51.716;7.016;2022-08-01T06:14:06;22.00;77.10
71837;DHT22;59686;51.716;7.016;2022-08-01T06:16:32;21.90;79.00
71837;DHT22;59686;51.716;7.016;2022-08-01T06:18:58;21.80;80.30
71837;DHT22;59686;51.716;7.016;2022-08-01T06:21:24;21.70;80.50
71837;DHT22;59686;51.716;7.016;2022-08-01T06:23:50;21.80;80.20
71837;DHT22;59686;51.716;7.016;2022-08-01T06:26:19;21.80;79.80
71837;DHT22;59686;51.716;7.016;2022-08-01T06:28:45;21.80;79.50
71837;DHT22;59686;51.716;7.016;2022-08-01T06:31:11;21.90;79.10
71837;DHT22;59686;51.716;7.016;2022-08-01T06:33:39;21.90;79.00
71837;DHT22;59686;51.716;7.016;2022-08-01T06:36:04;21.90;79.50
71837;DHT22;59686;51.716;7.016;2022-08-01T06:38:30;21.90;78.30
71837;DHT22;59686;51.716;7.016;2022-08-01T06:40:56;21.90;78.30
71837;DHT22;59686;51.716;7.016;2022-08-01T06:43:22;21.90;78.10
71837;DHT22;59686;51.716;7.016;2022-08-01T06:45:48;21.90;78.10
71837;DHT22;59686;51.716;7.016;2022-08-01T06:48:14;21.90;78.10
71837;DHT22;59686;51.716;7.016;2022-08-01T06:50:39;21.90;78.00
71837;DHT22;59686;51.716;7.016;2022-08-01T06:53:12;21.90;78.10
71837;DHT22;59686;51.716;7.016;2022-08-01T06:55:37;21.90;78.70
71837;DHT22;59686;51.716;7.016;2022-08-01T06:58:04;21.90;78.10
71837;DHT22;59686;51.716;7.016;2022-08-01T07:00:29;21.90;77.90
71837;DHT22;59686;51.716;7.016;2022-08-01T07:02:57;21.90;78.00
71837;DHT22;59686;51.716;7.016;2022-08-01T07:05:24;21.90;77.90
71837;DHT22;59686;51.716;7.016;2022-08-01T07:07:50;21.90;77.90
71837;DHT22;59686;51.716;7.016;2022-08-01T07:10:16;21.90;77.80
71837;DHT22;59686;51.716;7.016;2022-08-01T07:12:44;21.90;77.80
71837;DHT22;59686;51.716;7.016;2022-08-01T07:15:10;22.00;78.00
71837;DHT22;59686;51.716;7.016;2022-08-01T07:17:40;22.00;78.10
71837;DHT22;59686;51.716;7.016;2022-08-01T07:20:08;21.80;77.90
71837;DHT22;59686;51.716;7.016;2022-08-01T07:22:40;21.90;78.10
71837;DHT22;59686;51.716;7.016;2022-08-01T07:25:07;21.90;77.90
71837;DHT22;59686;51.716;7.016;2022-08-01T07:27:33;22.00;78.00
71837;DHT22;59686;51.716;7.016;2022-08-01T07:29:58;22.00;78.00
71837;DHT22;59686;51.716;7.016;2022-08-01T07:32:24;22.00;77.90
71837;DHT22;59686;51.716;7.016;2022-08-01T07:34:50;21.90;77.80
71837;DHT22;59686;51.716;7.016;2022-08-01T07:37:16;21.90;77.90
71837;DHT22;59686;51.716;7.016;2022-08-01T07:39:43;21.90;78.10
71837;DHT22;59686;51.716;7.016;2022-08-01T07:42:12;22.00;78.10
71837;DHT22;59686;51.716;7.016;2022-08-01T07:44:38;21.90;78.10
71837;DHT22;59686;51.716;7.016;2022-08-01T07:47:04;22.00;77.90
71837;DHT22;59686;51.716;7.016;2022-08-01T07:49:30;22.00;78.20
71837;DHT22;59686;51.716;7.016;2022-08-01T07:51:56;22.00;78.10
71837;DHT22;59686;51.716;7.016;2022-08-01T07:54:21;22.00;78.50
71837;DHT22;59686;51.716;7.016;2022-08-01T07:56:50;22.00;78.40
71837;DHT22;59686;51.716;7.016;2022-08-01T07:59:15;22.00;78.70
71837;DHT22;59686;51.716;7.016;2022-08-01T08:01:41;22.00;78.60
71837;DHT22;59686;51.716;7.016;2022-08-01T08:04:07;22.00;78.30
71837;DHT22;59686;51.716;7.016;2022-08-01T08:06:33;22.00;78.30
71837;DHT22;59686;51.716;7.016;2022-08-01T08:09:05;22.00;78.20
71837;DHT22;59686;51.716;7.016;2022-08-01T08:11:31;22.00;78.20
71837;DHT22;59686;51.716;7.016;2022-08-01T08:13:57;22.00;78.20
71837;DHT22;59686;51.716;7.016;2022-08-01T08:16:22;22.00;78.10
71837;DHT22;59686;51.716;7.016;2022-08-01T08:18:51;22.00;78.00
71837;DHT22;59686;51.716;7.016;2022-08-01T08:21:17;22.00;77.70
71837;DHT22;59686;51.716;7.016;2022-08-01T08:23:42;22.00;77.90
71837;DHT22;59686;51.716;7.016;2022-08-01T08:26:26;22.00;78.00
71837;DHT22;59686;51.716;7.016;2022-08-01T08:28:59;22.00;77.80
71837;DHT22;59686;51.716;7.016;2022-08-01T08:31:25;22.00;77.60
71837;DHT22;59686;51.716;7.016;2022-08-01T08:34:14;22.00;77.70
71837;DHT22;59686;51.716;7.016;2022-08-01T08:37:16;22.00;77.50
71837;DHT22;59686;51.716;7.016;2022-08-01T08:39:42;22.00;77.50
71837;DHT22;59686;51.716;7.016;2022-08-01T08:42:11;22.10;77.40
71837;DHT22;59686;51.716;7.016;2022-08-01T08:44:37;22.00;77.40
71837;DHT22;59686;51.716;7.016;2022-08-01T08:47:05;22.00;77.40
71837;DHT22;59686;51.716;7.016;2022-08-01T08:49:34;22.00;77.40
71837;DHT22;59686;51.716;7.016;2022-08-01T08:52:01;22.00;77.50
71837;DHT22;59686;51.716;7.016;2022-08-01T08:54:28;22.00;77.50
71837;DHT22;59686;51.716;7.016;2022-08-01T08:56:58;22.00;77.40
71837;DHT22;59686;51.716;7.016;2022-08-01T08:59:24;22.00;77.80
71837;DHT22;59686;51.716;7.016;2022-08-01T09:01:50;22.00;77.50
71837;DHT22;59686;51.716;7.016;2022-08-01T09:04:16;22.00;77.30
71837;DHT22;59686;51.716;7.016;2022-08-01T09:06:42;22.10;77.30
71837;DHT22;59686;51.716;7.016;2022-08-01T09:09:09;22.10;77.20
71837;DHT22;59686;51.716;7.016;2022-08-01T09:11:35;22.10;77.00
71837;DHT22;59686;51.716;7.016;2022-08-01T09:14:13;22.10;77.10
71837;DHT22;59686;51.716;7.016;2022-08-01T09:16:44;22.10;77.00
71837;DHT22;59686;51.716;7.016;2022-08-01T09:19:15;22.10;77.10
71837;DHT22;59686;51.716;7.016;2022-08-01T09:21:58;22.10;76.90
71837;DHT22;59686;51.716;7.016;2022-08-01T09:24:26;22.10;76.90
71837;DHT22;59686;51.716;7.016;2022-08-01T09:26:52;22.10;77.10
71837;DHT22;59686;51.716;7.016;2022-08-01T09:29:24;22.10;77.10
71837;DHT22;59686;51.716;7.016;2022-08-01T09:31:55;22.10;77.20
71837;DHT22;59686;51.716;7.016;2022-08-01T09:34:30;22.00;77.30
71837;DHT22;59686;51.716;7.016;2022-08-01T09:36:59;22.00;77.30
71837;DHT22;59686;51.716;7.016;2022-08-01T09:41:54;22.00;77.00
71837;DHT22;59686;51.716;7.016;2022-08-01T09:44:25;22.10;77.80
71837;DHT22;59686;51.716;7.016;2022-08-01T09:47:01;22.10;77.10
71837;DHT22;59686;51.716;7.016;2022-08-01T09:49:54;22.10;76.80
71837;DHT22;59686;51.716;7.016;2022-08-01T09:52:23;22.10;76.70
71837;DHT22;59686;51.716;7.016;2022-08-01T09:54:57;22.10;76.70
71837;DHT22;59686;51.716;7.016;2022-08-01T09:57:24;22.10;76.40
71837;DHT22;59686;51.716;7.016;2022-08-01T09:59:53;22.10;76.50
71837;DHT22;59686;51.716;7.016;2022-08-01T10:04:54;22.10;76.60
71837;DHT22;59686;51.716;7.016;2022-08-01T10:07:20;22.10;76.60
71837;DHT22;59686;51.716;7.016;2022-08-01T10:09:48;22.10;76.50
71837;DHT22;59686;51.716;7.016;2022-08-01T10:12:17;22.10;76.60
71837;DHT22;59686;51.716;7.016;2022-08-01T10:14:45;22.20;76.40
71837;DHT22;59686;51.716;7.016;2022-08-01T10:17:19;22.10;76.20
71837;DHT22;59686;51.716;7.016;2022-08-01T10:19:46;22.20;76.20
71837;DHT22;59686;51.716;7.016;2022-08-01T10:22:16;22.20;76.30
71837;DHT22;59686;51.716;7.016;2022-08-01T10:24:46;22.20;76.20
71837;DHT22;59686;51.716;7.016;2022-08-01T10:27:15;22.20;76.00
71837;DHT22;59686;51.716;7.016;2022-08-01T10:30:00;22.20;75.80
71837;DHT22;59686;51.716;7.016;2022-08-01T10:32:37;22.20;75.60
71837;DHT22;59686;51.716;7.016;2022-08-01T10:35:06;22.20;75.70
71837;DHT22;59686;51.716;7.016;2022-08-01T10:37:35;22.20;75.70
71837;DHT22;59686;51.716;7.016;2022-08-01T10:40:02;22.20;75.70
71837;DHT22;59686;51.716;7.016;2022-08-01T10:42:30;22.20;75.60
71837;DHT22;59686;51.716;7.016;2022-08-01T10:44:57;22.30;75.50
71837;DHT22;59686;51.716;7.016;2022-08-01T10:48:02;22.30;75.30
71837;DHT22;59686;51.716;7.016;2022-08-01T10:50:32;22.30;75.30
71837;DHT22;59686;51.716;7.016;2022-08-01T10:53:13;22.30;75.20
71837;DHT22;59686;51.716;7.016;2022-08-01T10:58:11;22.30;75.10
71837;DHT22;59686;51.716;7.016;2022-08-01T11:00:37;22.30;75.00
71837;DHT22;59686;51.716;7.016;2022-08-01T11:03:03;22.40;74.90
71837;DHT22;59686;51.716;7.016;2022-08-01T11:05:34;22.40;74.80
71837;DHT22;59686;51.716;7.016;2022-08-01T11:08:22;22.40;74.70
71837;DHT22;59686;51.716;7.016;2022-08-01T11:10:48;22.40;74.60
71837;DHT22;59686;51.716;7.016;2022-08-01T11:16:39;22.50;74.50
71837;DHT22;59686;51.716;7.016;2022-08-01T11:19:05;22.50;75.10
71837;DHT22;59686;51.716;7.016;2022-08-01T11:27:49;22.50;74.40
71837;DHT22;59686;51.716;7.016;2022-08-01T11:30:35;22.50;74.30
71837;DHT22;59686;51.716;7.016;2022-08-01T11:33:00;22.50;74.20
71837;DHT22;59686;51.716;7.016;2022-08-01T11:35:28;22.50;74.30
71837;DHT22;59686;51.716;7.016;2022-08-01T11:37:54;22.50;74.30
71837;DHT22;59686;51.716;7.016;2022-08-01T11:40:30;22.50;74.40
71837;DHT22;59686;51.716;7.016;2022-08-01T11:43:25;22.50;74.40
71837;DHT22;59686;51.716;7.016;2022-08-01T11:45:54;22.50;74.30
71837;DHT22;59686;51.716;7.016;2022-08-01T11:48:26;22.50;74.30
71837;DHT22;59686;51.716;7.016;2022-08-01T11:50:55;22.50;74.30
71837;DHT22;59686;51.716;7.016;2022-08-01T11:53:21;22.50;74.20
71837;DHT22;59686;51.716;7.016;2022-08-01T11:55:53;22.50;74.10
71837;DHT22;59686;51.716;7.016;2022-08-01T11:58:26;22.50;74.00
71837;DHT22;59686;51.716;7.016;2022-08-01T12:00:57;22.60;73.90
71837;DHT22;59686;51.716;7.016;2022-08-01T12:03:31;22.60;73.70
71837;DHT22;59686;51.716;7.016;2022-08-01T12:05:58;22.60;73.70
71837;DHT22;59686;51.716;7.016;2022-08-01T12:08:25;22.60;73.60
71837;DHT22;59686;51.716;7.016;2022-08-01T12:10:55;22.70;73.40
71837;DHT22;59686;51.716;7.016;2022-08-01T12:13:21;22.70;73.50
71837;DHT22;59686;51.716;7.016;2022-08-01T12:15:48;22.70;73.90
71837;DHT22;59686;51.716;7.016;2022-08-01T12:18:38;22.70;73.00
71837;DHT22;59686;51.716;7.016;2022-08-01T12:21:04;22.80;72.60
71837;DHT22;59686;51.716;7.016;2022-08-01T12:23:30;22.80;73.50
71837;DHT22;59686;51.716;7.016;2022-08-01T12:25:57;22.80;72.80
71837;DHT22;59686;51.716;7.016;2022-08-01T12:28:22;22.90;72.80
71837;DHT22;59686;51.716;7.016;2022-08-01T12:30:49;22.90;72.70
71837;DHT22;59686;51.716;7.016;2022-08-01T12:33:17;22.90;72.60
71837;DHT22;59686;51.716;7.016;2022-08-01T12:36:04;22.90;72.70
71837;DHT22;59686;51.716;7.016;2022-08-01T12:38:30;22.90;72.70
71837;DHT22;59686;51.716;7.016;2022-08-01T12:41:10;22.90;72.70
71837;DHT22;59686;51.716;7.016;2022-08-01T12:43:36;22.90;72.60
71837;DHT22;59686;51.716;7.016;2022-08-01T12:46:02;23.00;72.40
71837;DHT22;59686;51.716;7.016;2022-08-01T12:48:30;23.00;72.20
71837;DHT22;59686;51.716;7.016;2022-08-01T12:50:56;23.00;72.10
71837;DHT22;59686;51.716;7.016;2022-08-01T12:53:23;23.00;72.20
71837;DHT22;59686;51.716;7.016;2022-08-01T12:55:53;23.00;72.20
71837;DHT22;59686;51.716;7.016;2022-08-01T12:58:20;23.00;71.70
71837;DHT22;59686;51.716;7.016;2022-08-01T13:00:48;23.00;71.80
71837;DHT22;59686;51.716;7.016;2022-08-01T13:03:17;23.00;72.00
71837;DHT22;59686;51.716;7.016;2022-08-01T13:05:51;23.00;71.90
71837;DHT22;59686;51.716;7.016;2022-08-01T13:08:22;23.10;71.50
71837;DHT22;59686;51.716;7.016;2022-08-01T13:10:49;23.10;71.70
71837;DHT22;59686;51.716;7.016;2022-08-01T13:13:18;23.00;71.50
71837;DHT22;59686;51.716;7.016;2022-08-01T13:15:46;23.10;71.40
71837;DHT22;59686;51.716;7.016;2022-08-01T13:18:28;23.00;71.10
71837;DHT22;59686;51.716;7.016;2022-08-01T13:24:02;23.10;71.20
71837;DHT22;59686;51.716;7.016;2022-08-01T13:26:50;23.10;71.50
71837;DHT22;59686;51.716;7.016;2022-08-01T13:29:18;23.20;71.50
71837;DHT22;59686;51.716;7.016;2022-08-01T13:31:46;23.20;70.80
71837;DHT22;59686;51.716;7.016;2022-08-01T13:34:12;23.20;71.60
71837;DHT22;59686;51.716;7.016;2022-08-01T13:36:38;23.30;71.10
71837;DHT22;59686;51.716;7.016;2022-08-01T13:39:05;23.20;70.90
71837;DHT22;59686;51.716;7.016;2022-08-01T13:41:50;23.30;71.50
71837;DHT22;59686;51.716;7.016;2022-08-01T13:44:16;23.20;70.70
71837;DHT22;59686;51.716;7.016;2022-08-01T13:46:45;23.20;70.40
71837;DHT22;59686;51.716;7.016;2022-08-01T13:49:13;23.30;70.40
71837;DHT22;59686;51.716;7.016;2022-08-01T13:51:39;23.30;70.60
71837;DHT22;59686;51.716;7.016;2022-08-01T13:54:05;23.30;70.10
71837;DHT22;59686;51.716;7.016;2022-08-01T13:56:31;23.40;69.80
71837;DHT22;59686;51.716;7.016;2022-08-01T13:58:57;23.40;69.50
71837;DHT22;59686;51.716;7.016;2022-08-01T14:01:28;23.40;69.50
71837;DHT22;59686;51.716;7.016;2022-08-01T14:03:54;23.50;69.80
71837;DHT22;59686;51.716;7.016;2022-08-01T14:06:20;23.50;70.10
71837;DHT22;59686;51.716;7.016;2022-08-01T14:08:49;23.50;69.00
71837;DHT22;59686;51.716;7.016;2022-08-01T14:11:15;23.50;69.30
71837;DHT22;59686;51.716;7.016;2022-08-01T14:13:41;23.50;68.90
71837;DHT22;59686;51.716;7.016;2022-08-01T14:16:07;23.60;68.90
71837;DHT22;59686;51.716;7.016;2022-08-01T14:18:33;23.60;68.60
71837;DHT22;59686;51.716;7.016;2022-08-01T14:21:04;23.60;68.80
71837;DHT22;59686;51.716;7.016;2022-08-01T14:23:30;23.60;68.20
71837;DHT22;59686;51.716;7.016;2022-08-01T14:25:55;23.60;68.20
71837;DHT22;59686;51.716;7.016;2022-08-01T14:28:21;23.60;68.60
71837;DHT22;59686;51.716;7.016;2022-08-01T14:30:47;23.50;68.30
71837;DHT22;59686;51.716;7.016;2022-08-01T14:33:17;23.50;68.30
71837;DHT22;59686;51.716;7.016;2022-08-01T14:35:42;23.60;68.90
71837;DHT22;59686;51.716;7.016;2022-08-01T14:38:08;23.60;68.20
71837;DHT22;59686;51.716;7.016;2022-08-01T14:40:34;23.70;68.00
71837;DHT22;59686;51.716;7.016;2022-08-01T14:43:00;23.70;68.40
71837;DHT22;59686;51.716;7.016;2022-08-01T14:45:27;23.70;68.60
71837;DHT22;59686;51.716;7.016;2022-08-01T14:47:53;23.70;68.70
71837;DHT22;59686;51.716;7.016;2022-08-01T14:50:19;23.70;68.60
71837;DHT22;59686;51.716;7.016;2022-08-01T14:52:45;23.70;68.70
71837;DHT22;59686;51.716;7.016;2022-08-01T14:55:11;23.70;68.40
71837;DHT22;59686;51.716;7.016;2022-08-01T14:57:38;23.70;68.20
71837;DHT22;59686;51.716;7.016;2022-08-01T15:00:06;23.80;68.10
71837;DHT22;59686;51.716;7.016;2022-08-01T15:02:32;23.80;67.80
71837;DHT22;59686;51.716;7.016;2022-08-01T15:04:58;23.80;67.80
71837;DHT22;59686;51.716;7.016;2022-08-01T15:07:24;23.90;67.90
71837;DHT22;59686;51.716;7.016;2022-08-01T15:09:49;23.90;67.90
71837;DHT22;59686;51.716;7.016;2022-08-01T15:12:15;23.90;67.90
71837;DHT22;59686;51.716;7.016;2022-08-01T15:14:41;23.90;67.80
71837;DHT22;59686;51.716;7.016;2022-08-01T15:17:19;23.90;68.00
71837;DHT22;59686;51.716;7.016;2022-08-01T15:19:47;23.90;68.10
71837;DHT22;59686;51.716;7.016;2022-08-01T15:22:13;23.90;68.00
71837;DHT22;59686;51.716;7.016;2022-08-01T15:24:39;23.80;68.20
71837;DHT22;59686;51.716;7.016;2022-08-01T15:27:09;23.80;67.50
71837;DHT22;59686;51.716;7.016;2022-08-01T15:29:36;23.90;67.90
71837;DHT22;59686;51.716;7.016;2022-08-01T15:32:06;23.80;68.10
71837;DHT22;59686;51.716;7.016;2022-08-01T15:34:33;23.80;68.20
71837;DHT22;59686;51.716;7.016;2022-08-01T15:37:00;23.90;67.30
71837;DHT22;59686;51.716;7.016;2022-08-01T15:39:25;23.90;67.50
71837;DHT22;59686;51.716;7.016;2022-08-01T15:41:51;24.00;67.60
71837;DHT22;59686;51.716;7.016;2022-08-01T15:44:18;24.00;67.60
71837;DHT22;59686;51.716;7.016;2022-08-01T15:46:46;24.10;66.70
71837;DHT22;59686;51.716;7.016;2022-08-01T15:49:13;24.10;66.80
71837;DHT22;59686;51.716;7.016;2022-08-01T15:51:43;24.10;67.00
71837;DHT22;59686;51.716;7.016;2022-08-01T15:54:09;24.10;66.90
71837;DHT22;59686;51.716;7.016;2022-08-01T15:56:36;24.10;67.00
71837;DHT22;59686;51.716;7.016;2022-08-01T15:59:03;24.10;67.10
71837;DHT22;59686;51.716;7.016;2022-08-01T16:01:28;24.10;66.50
71837;DHT22;59686;51.716;7.016;2022-08-01T16:03:55;24.10;66.50
71837;DHT22;59686;51.716;7.016;2022-08-01T16:06:24;24.10;67.00
71837;DHT22;59686;51.716;7.016;2022-08-01T16:08:50;24.10;67.10
71837;DHT22;59686;51.716;7.016;2022-08-01T16:11:17;24.10;67.20